Time;durP1;ratioP1;P1;durP2;ratioP2;P2;SDS_P1;SDS_P2;PMS_P1;PMS_P2;Temp;Humidity;BMP_temperature;BMP_pressure;BME280_temperature;BME280_humidity;BME280_pressure;Samples;Min_cycle;Max_cycle;Signal;HPM_P1;HPM_P2
2023/04/09 00:01:09;;;;;;;34.92;22.70;;;;;;;-139.84;100.00;61778.28;5044428;28;20128;-73
2023/04/09 00:03:37;;;;;;;30.80;22.02;;;;;;;-139.84;100.00;61778.28;5046502;28;20041;-73
2023/04/09 00:06:03;;;;;;;33.33;25.00;;;;;;;-139.84;100.00;61778.28;5027760;28;20404;-74
2023/04/09 00:08:29;;;;;;;36.30;23.45;;;;;;;-139.84;100.00;61778.28;5043304;28;20028;-73
2023/04/09 00:10:57;;;;;;;33.10;23.00;;;;;;;-139.84;100.00;61778.28;5043213;28;20048;-74
2023/04/09 00:13:22;;;;;;;32.95;22.42;;;;;;;-139.84;100.00;61778.28;5045458;28;20102;-73
2023/04/09 00:15:48;;;;;;;35.60;23.95;;;;;;;-139.84;100.00;61778.28;5041876;28;20029;-74
2023/04/09 00:18:14;;;;;;;36.40;24.77;;;;;;;-139.84;100.00;61778.28;5045518;28;20124;-73
2023/04/09 00:20:39;;;;;;;37.28;24.33;;;;;;;-139.84;100.00;61778.28;5047149;28;20021;-74
2023/04/09 00:23:05;;;;;;;36.17;25.65;;;;;;;-139.84;100.00;61778.28;5045804;28;20091;-74
2023/04/09 00:25:30;;;;;;;36.90;25.73;;;;;;;-139.84;100.00;61778.28;5046939;28;20025;-74
2023/04/09 00:27:56;;;;;;;42.42;26.95;;;;;;;-139.84;100.00;61778.28;5030548;28;20127;-74
2023/04/09 00:30:22;;;;;;;42.85;27.05;;;;;;;-139.84;100.00;61778.28;5042987;28;20445;-73
2023/04/09 00:32:48;;;;;;;42.65;27.25;;;;;;;-139.84;100.00;61778.28;5029988;28;20044;-73
2023/04/09 00:35:15;;;;;;;45.63;30.15;;;;;;;-139.84;100.00;61778.28;5044326;28;20037;-74
2023/04/09 00:37:40;;;;;;;43.03;28.75;;;;;;;-139.84;100.00;61778.28;5033204;28;20030;-74
2023/04/09 00:40:06;;;;;;;47.50;31.00;;;;;;;-139.84;100.00;61778.28;5046179;28;20413;-75
2023/04/09 00:42:36;;;;;;;50.25;30.27;;;;;;;-139.84;100.00;61778.28;5046950;28;20032;-73
2023/04/09 00:45:02;;;;;;;45.17;30.70;;;;;;;-139.84;100.00;61778.28;5040803;28;20025;-73
2023/04/09 00:47:29;;;;;;;50.38;31.52;;;;;;;-139.84;100.00;61778.28;5043885;28;20492;-73
2023/04/09 00:49:55;;;;;;;47.63;30.30;;;;;;;-139.84;100.00;61778.28;5045947;28;20037;-73
2023/04/09 00:52:20;;;;;;;47.07;31.30;;;;;;;-139.84;100.00;61778.28;5034939;28;20035;-73
2023/04/09 00:54:50;;;;;;;45.33;29.87;;;;;;;-139.84;100.00;61778.28;5041829;28;20086;-73
2023/04/09 00:57:16;;;;;;;51.42;31.35;;;;;;;-139.84;100.00;61778.28;5027716;28;20511;-73
2023/04/09 00:59:43;;;;;;;46.10;30.17;;;;;;;-139.84;100.00;61778.28;5043707;28;20025;-73
2023/04/09 01:02:09;;;;;;;46.92;31.08;;;;;;;-139.84;100.00;61778.28;5044986;28;20164;-74
2023/04/09 01:04:35;;;;;;;52.27;30.93;;;;;;;-139.84;100.00;61778.28;5044239;28;20040;-73
2023/04/09 01:07:43;;;;;;;44.85;30.45;;;;;;;-139.84;100.00;61778.28;5006863;28;20544;-73
2023/04/09 01:10:28;;;;;;;44.92;29.88;;;;;;;-139.84;100.00;61778.28;5029473;28;20481;-73
2023/04/09 01:13:11;;;;;;;42.15;30.27;;;;;;;-139.84;100.00;61778.28;5030118;28;20144;-72
2023/04/09 01:15:47;;;;;;;42.35;29.17;;;;;;;-139.84;100.00;61778.28;5025380;28;20033;-73
2023/04/09 01:18:17;;;;;;;43.75;29.50;;;;;;;-139.84;100.00;61778.28;5038489;28;20480;-74
2023/04/09 01:20:57;;;;;;;39.97;28.52;;;;;;;-139.84;100.00;61778.28;5030560;28;20025;-74
2023/04/09 01:23:34;;;;;;;44.25;30.13;;;;;;;-139.84;100.00;61778.28;5025406;28;20499;-74
2023/04/09 01:26:09;;;;;;;44.90;30.52;;;;;;;-139.84;100.00;61778.28;5038055;28;20053;-74
2023/04/09 01:28:43;;;;;;;44.70;29.55;;;;;;;-139.84;100.00;61778.28;5044797;28;20025;-74
2023/04/09 01:31:17;;;;;;;42.00;29.77;;;;;;;-139.84;100.00;61778.28;5038927;28;20035;-74
2023/04/09 01:33:43;;;;;;;41.83;28.70;;;;;;;-139.84;100.00;61778.28;5044778;28;20079;-75
2023/04/09 01:36:10;;;;;;;41.63;29.20;;;;;;;-139.84;100.00;61778.28;5045989;28;20116;-72
2023/04/09 01:38:38;;;;;;;45.83;31.75;;;;;;;-139.84;100.00;61778.28;5044903;28;20408;-73
2023/04/09 01:41:06;;;;;;;38.72;28.88;;;;;;;-139.84;100.00;61778.28;5041950;28;20036;-73
2023/04/09 01:43:32;;;;;;;42.42;29.92;;;;;;;-139.84;100.00;61778.28;5039762;28;20036;-73
2023/04/09 01:46:00;;;;;;;46.55;30.23;;;;;;;-139.84;100.00;61778.28;5028190;28;20040;-73
2023/04/09 01:48:27;;;;;;;43.30;28.98;;;;;;;-139.84;100.00;61778.28;5041719;28;20037;-73
2023/04/09 01:50:53;;;;;;;40.47;29.70;;;;;;;-139.84;100.00;61778.28;5026767;28;20515;-72
2023/04/09 01:53:20;;;;;;;40.07;27.83;;;;;;;-139.84;100.00;61778.28;5040708;28;20033;-73
2023/04/09 01:55:45;;;;;;;;;;;;;;;-139.84;100.00;61778.28;5028622;28;20488;-74
2023/04/09 01:58:11;;;;;;;40.03;26.90;;;;;;;-139.84;100.00;61778.28;5044254;28;19962;-73
2023/04/09 02:00:47;;;;;;;39.10;28.23;;;;;;;-139.84;100.00;61778.28;5026288;28;20412;-71
2023/04/09 02:03:20;;;;;;;45.90;29.10;;;;;;;-139.84;100.00;61778.28;5016416;28;20124;-72
2023/04/09 02:05:54;;;;;;;43.30;29.50;;;;;;;-139.84;100.00;61778.28;5048682;28;20025;-72
2023/04/09 02:08:21;;;;;;;39.63;27.70;;;;;;;-139.84;100.00;61778.28;5043038;28;20396;-68
2023/04/09 02:10:52;;;;;;;;;;;;;;;-139.84;100.00;61778.28;5041907;28;20255;-68
2023/04/09 02:13:19;;;;;;;40.30;28.70;;;;;;;-139.84;100.00;61778.28;5043068;28;20281;-68
2023/04/09 02:15:47;;;;;;;44.92;29.33;;;;;;;-139.84;100.00;61778.28;5042842;28;20027;-68
2023/04/09 02:18:26;;;;;;;;;;;;;;;-139.84;100.00;61778.28;5024093;28;20120;-68
2023/04/09 02:20:53;;;;;;;43.35;29.17;;;;;;;-139.84;100.00;61778.28;5041990;28;20446;-67
2023/04/09 02:23:19;;;;;;;40.35;28.90;;;;;;;-139.84;100.00;61778.28;5033234;28;20417;-68
2023/04/09 02:25:44;;;;;;;41.70;28.08;;;;;;;-139.84;100.00;61778.28;5040195;28;20044;-68
2023/04/09 02:28:11;;;;;;;41.03;29.27;;;;;;;-139.84;100.00;61778.28;5034144;28;20075;-68
2023/04/09 02:30:37;;;;;;;39.58;27.92;;;;;;;-139.84;100.00;61778.28;5040149;28;20031;-70
2023/04/09 02:33:03;;;;;;;41.92;30.13;;;;;;;-139.84;100.00;61778.28;5042217;28;20112;-67
2023/04/09 02:35:29;;;;;;;41.80;30.02;;;;;;;-139.84;100.00;61778.28;5042204;28;20528;-67
2023/04/09 02:37:54;;;;;;;43.60;30.77;;;;;;;-139.84;100.00;61778.28;5040636;28;20051;-68
2023/04/09 02:40:20;;;;;;;38.85;28.33;;;;;;;-139.84;100.00;61778.28;5042782;28;20029;-69
2023/04/09 02:42:45;;;;;;;40.00;29.33;;;;;;;-139.84;100.00;61778.28;5045183;28;20376;-67
2023/04/09 02:45:12;;;;;;;41.28;29.35;;;;;;;-139.84;100.00;61778.28;5040562;28;20048;-68
2023/04/09 02:47:37;;;;;;;42.58;29.55;;;;;;;-139.84;100.00;61778.28;5042759;28;20392;-68
2023/04/09 02:50:04;;;;;;;38.45;28.08;;;;;;;-139.84;100.00;61778.28;5044836;28;20041;-68
2023/04/09 02:52:30;;;;;;;44.97;28.73;;;;;;;-139.84;100.00;61778.28;5046587;28;20032;-68
2023/04/09 02:54:56;;;;;;;42.17;28.40;;;;;;;-139.84;100.00;61778.28;5039778;28;20497;-69
2023/04/09 02:57:21;;;;;;;36.00;27.83;;;;;;;-139.84;100.00;61778.28;5024786;28;20025;-67
2023/04/09 02:59:47;;;;;;;37.25;26.67;;;;;;;-139.84;100.00;61778.28;5045597;28;20040;-68
2023/04/09 03:02:12;;;;;;;37.35;26.90;;;;;;;-139.84;100.00;61778.28;5043261;28;20045;-68
2023/04/09 03:04:38;;;;;;;39.95;27.27;;;;;;;-139.84;100.00;61778.28;5045408;28;20036;-67
2023/04/09 03:07:04;;;;;;;37.63;27.10;;;;;;;-139.84;100.00;61778.28;5042577;28;20118;-67
2023/04/09 03:09:31;;;;;;;39.17;27.20;;;;;;;-139.84;100.00;61778.28;5043281;28;20147;-70
2023/04/09 03:11:56;;;;;;;36.08;27.75;;;;;;;-139.84;100.00;61778.28;5044851;28;20503;-69
2023/04/09 03:14:24;;;;;;;35.65;26.35;;;;;;;-139.84;100.00;61778.28;5047278;28;20025;-68
2023/04/09 03:16:50;;;;;;;35.40;26.27;;;;;;;-139.84;100.00;61778.28;5047094;28;20036;-68
2023/04/09 03:19:15;;;;;;;35.87;26.47;;;;;;;-139.84;100.00;61778.28;5045444;28;20020;-68
2023/04/09 03:21:41;;;;;;;37.93;26.53;;;;;;;-139.84;100.00;61778.28;5044261;28;20474;-67
2023/04/09 03:24:07;;;;;;;35.00;24.98;;;;;;;-139.84;100.00;61778.28;5044714;28;20423;-68
2023/04/09 03:26:35;;;;;;;36.70;26.17;;;;;;;-139.84;100.00;61778.28;5034414;28;20025;-68
2023/04/09 03:29:05;;;;;;;35.70;25.80;;;;;;;-139.84;100.00;61778.28;5044653;28;20025;-68
2023/04/09 03:31:31;;;;;;;37.35;26.88;;;;;;;-139.84;100.00;61778.28;5044193;28;20052;-69
2023/04/09 03:33:56;;;;;;;37.73;25.87;;;;;;;-139.84;100.00;61778.28;5046578;28;20104;-68
2023/04/09 03:36:22;;;;;;;40.37;27.47;;;;;;;-139.84;100.00;61778.28;5032293;28;20115;-68
2023/04/09 03:38:48;;;;;;;36.55;27.65;;;;;;;-139.84;100.00;61778.28;5045547;28;20029;-70
2023/04/09 03:41:15;;;;;;;39.00;26.80;;;;;;;-139.84;100.00;61778.28;5025946;28;20417;-68
2023/04/09 03:43:41;;;;;;;40.10;27.38;;;;;;;-139.84;100.00;61778.28;5043005;28;20029;-69
2023/04/09 03:46:14;;;;;;;38.00;27.40;;;;;;;-139.84;100.00;61778.28;5044803;28;20035;-69
2023/04/09 03:48:40;;;;;;;38.90;26.98;;;;;;;-139.84;100.00;61778.28;5046754;28;20021;-69
2023/04/09 03:51:05;;;;;;;38.77;26.97;;;;;;;-139.84;100.00;61778.28;5045048;28;20025;-68
2023/04/09 03:53:31;;;;;;;38.95;27.05;;;;;;;-139.84;100.00;61778.28;5041068;28;20041;-68
2023/04/09 03:55:56;;;;;;;39.50;27.47;;;;;;;-139.84;100.00;61778.28;5044119;28;20036;-69
2023/04/09 03:58:22;;;;;;;38.83;27.17;;;;;;;-139.84;100.00;61778.28;5045077;28;20542;-68
2023/04/09 04:00:47;;;;;;;38.10;27.17;;;;;;;-139.84;100.00;61778.28;5043014;28;20044;-68
2023/04/09 04:03:14;;;;;;;40.90;27.75;;;;;;;-139.84;100.00;61778.28;5027623;28;20017;-69
2023/04/09 04:05:41;;;;;;;42.63;28.58;;;;;;;-139.84;100.00;61778.28;5042827;28;20025;-69
2023/04/09 04:08:08;;;;;;;42.15;28.65;;;;;;;-139.84;100.00;61778.28;5045354;28;20645;-68
2023/04/09 04:10:34;;;;;;;;;;;;;;;-139.84;100.00;61778.28;5049428;28;20140;-68
2023/04/09 04:13:00;;;;;;;45.00;28.83;;;;;;;-139.84;100.00;61778.28;5045320;28;20323;-68
2023/04/09 04:15:28;;;;;;;44.78;29.92;;;;;;;-139.84;100.00;61778.28;5028838;28;20079;-68
2023/04/09 04:17:54;;;;;;;47.22;30.83;;;;;;;-139.84;100.00;61778.28;5031835;28;20044;-68
2023/04/09 04:20:19;;;;;;;49.17;31.23;;;;;;;-139.84;100.00;61778.28;5043318;28;20017;-68
2023/04/09 04:22:45;;;;;;;48.40;31.57;;;;;;;-139.84;100.00;61778.28;5025627;28;20124;-71
2023/04/09 04:25:10;;;;;;;48.80;30.65;;;;;;;-139.84;100.00;61778.28;5031909;28;20036;-67
2023/04/09 04:27:36;;;;;;;52.42;31.15;;;;;;;-139.84;100.00;61778.28;5025278;28;20112;-69
2023/04/09 04:30:01;;;;;;;49.05;30.27;;;;;;;-139.84;100.00;61778.28;5046697;28;20111;-67
2023/04/09 04:32:27;;;;;;;52.17;31.98;;;;;;;-139.84;100.00;61778.28;5046456;28;20125;-68
2023/04/09 04:34:52;;;;;;;47.63;30.43;;;;;;;-139.84;100.00;61778.28;5045754;28;20474;-68
2023/04/09 04:37:18;;;;;;;49.23;30.60;;;;;;;-139.84;100.00;61778.28;5043366;28;20037;-67
2023/04/09 04:39:44;;;;;;;49.25;30.80;;;;;;;-139.84;100.00;61778.28;5039977;28;20508;-70
2023/04/09 04:42:10;;;;;;;48.38;31.08;;;;;;;-139.84;100.00;61778.28;5027896;28;20025;-68
2023/04/09 04:44:38;;;;;;;46.30;30.90;;;;;;;-139.84;100.00;61778.28;5042419;28;20472;-67
2023/04/09 04:47:05;;;;;;;47.25;30.35;;;;;;;-139.84;100.00;61778.28;5043767;28;20060;-68
2023/04/09 04:49:30;;;;;;;48.45;29.38;;;;;;;-139.84;100.00;61778.28;5046530;28;20096;-68
2023/04/09 04:51:56;;;;;;;48.30;30.13;;;;;;;-139.84;100.00;61778.28;5031175;28;20485;-68
2023/04/09 04:54:21;;;;;;;46.03;28.92;;;;;;;-139.84;100.00;61778.28;5042536;28;20029;-68
2023/04/09 04:56:46;;;;;;;47.35;29.88;;;;;;;-139.84;100.00;61778.28;5025342;28;20037;-68
2023/04/09 04:59:12;;;;;;;48.13;29.75;;;;;;;-139.84;100.00;61778.28;5043138;28;20025;-68
2023/04/09 05:01:38;;;;;;;44.37;29.40;;;;;;;-139.84;100.00;61778.28;5041552;28;20106;-68
2023/04/09 05:04:04;;;;;;;52.13;29.60;;;;;;;-139.84;100.00;61778.28;5043002;28;20125;-68
2023/04/09 05:06:30;;;;;;;49.90;30.50;;;;;;;-139.84;100.00;61778.28;5031668;28;20032;-68
2023/04/09 05:08:57;;;;;;;51.03;29.88;;;;;;;-139.84;100.00;61778.28;5042819;28;20139;-68
2023/04/09 05:11:23;;;;;;;52.03;31.33;;;;;;;-139.84;100.00;61778.28;5043160;28;20040;-68
2023/04/09 05:13:49;;;;;;;49.83;29.77;;;;;;;-139.84;100.00;61778.28;5042353;28;20037;-67
2023/04/09 05:16:18;;;;;;;49.15;29.42;;;;;;;-139.84;100.00;61778.28;5031140;28;20028;-69
2023/04/09 05:18:44;;;;;;;46.45;29.63;;;;;;;-139.84;100.00;61778.28;5025687;28;20484;-68
2023/04/09 05:21:09;;;;;;;47.87;29.13;;;;;;;-139.84;100.00;61778.28;5026201;28;20037;-69
2023/04/09 05:23:35;;;;;;;47.45;28.75;;;;;;;-139.84;100.00;61778.28;5029685;28;20056;-68
2023/04/09 05:26:00;;;;;;;45.85;28.45;;;;;;;-139.84;100.00;61778.28;5045585;28;20020;-68
2023/04/09 05:28:26;;;;;;;46.40;29.23;;;;;;;-139.84;100.00;61778.28;5042841;28;20032;-67
2023/04/09 05:30:51;;;;;;;51.00;30.55;;;;;;;-139.84;100.00;61778.28;5044314;28;20368;-67
2023/04/09 05:33:16;;;;;;;46.90;29.63;;;;;;;-139.84;100.00;61778.28;5044248;28;20029;-67
2023/04/09 05:35:42;;;;;;;44.53;28.67;;;;;;;-139.84;100.00;61778.28;5042504;28;21123;-67
2023/04/09 05:38:07;;;;;;;45.43;29.43;;;;;;;-139.84;100.00;61778.28;5028554;28;20037;-67
2023/04/09 05:40:34;;;;;;;50.58;30.13;;;;;;;-139.84;100.00;61778.28;5031808;28;20048;-68
2023/04/09 05:42:59;;;;;;;47.55;30.23;;;;;;;-139.84;100.00;61778.28;5042084;28;20109;-67
2023/04/09 05:45:27;;;;;;;49.27;30.47;;;;;;;-139.84;100.00;61778.28;5042076;28;20388;-67
2023/04/09 05:47:52;;;;;;;46.33;29.13;;;;;;;-139.84;100.00;61778.28;5025341;28;20032;-68
2023/04/09 05:50:18;;;;;;;46.27;28.77;;;;;;;-139.84;100.00;61778.28;5042417;28;20131;-68
2023/04/09 05:52:43;;;;;;;47.30;29.77;;;;;;;-139.84;100.00;61778.28;5044330;28;20083;-68
2023/04/09 05:55:09;;;;;;;46.53;30.87;;;;;;;-139.84;100.00;61778.28;5041309;28;20065;-68
2023/04/09 05:57:34;;;;;;;47.63;30.15;;;;;;;-139.84;100.00;61778.28;5045892;28;20550;-68
2023/04/09 06:00:00;;;;;;;49.30;31.00;;;;;;;-139.84;100.00;61778.28;5039799;28;20068;-68
2023/04/09 06:02:27;;;;;;;49.67;31.17;;;;;;;-139.84;100.00;61778.28;5041360;28;20050;-68
2023/04/09 06:04:52;;;;;;;51.42;30.08;;;;;;;-139.84;100.00;61778.28;5043731;28;20045;-68
2023/04/09 06:07:18;;;;;;;57.05;32.40;;;;;;;-139.84;100.00;61778.28;5042781;28;20029;-69
2023/04/09 06:09:43;;;;;;;48.38;30.45;;;;;;;-139.84;100.00;61778.28;5031295;28;20033;-69
2023/04/09 06:12:09;;;;;;;56.33;32.00;;;;;;;-139.84;100.00;61778.28;5032416;28;20024;-68
2023/04/09 06:14:34;;;;;;;51.77;32.23;;;;;;;-139.84;100.00;61778.28;5042504;28;20033;-68
2023/04/09 06:17:00;;;;;;;55.20;33.00;;;;;;;-139.84;100.00;61778.28;5035710;28;20060;-68
2023/04/09 06:19:25;;;;;;;55.70;32.90;;;;;;;-139.84;100.00;61778.28;5028677;28;20020;-70
2023/04/09 06:21:51;;;;;;;53.55;33.38;;;;;;;-139.84;100.00;61778.28;5038281;28;20025;-70
2023/04/09 06:24:16;;;;;;;55.87;33.27;;;;;;;-139.84;100.00;61778.28;5043599;28;20024;-69
2023/04/09 06:26:41;;;;;;;52.73;32.37;;;;;;;-139.84;100.00;61778.28;5044652;28;20035;-69
2023/04/09 06:29:07;;;;;;;57.58;33.13;;;;;;;-139.84;100.00;61778.28;5042566;28;20120;-69
2023/04/09 06:31:32;;;;;;;56.53;33.33;;;;;;;-139.84;100.00;61778.28;5041554;28;20029;-69
2023/04/09 06:33:58;;;;;;;57.40;33.43;;;;;;;-139.84;100.00;61778.28;5042697;28;20028;-68
2023/04/09 06:36:23;;;;;;;61.33;34.27;;;;;;;-139.84;100.00;61778.28;5041513;28;20083;-68
2023/04/09 06:38:49;;;;;;;59.00;34.58;;;;;;;-139.84;100.00;61778.28;5041607;28;20032;-68
2023/04/09 06:41:15;;;;;;;55.42;33.55;;;;;;;-139.84;100.00;61778.28;5042787;28;20029;-69
2023/04/09 06:43:41;;;;;;;60.85;34.40;;;;;;;-139.84;100.00;61778.28;5039993;28;20048;-69
2023/04/09 06:46:06;;;;;;;67.13;36.08;;;;;;;-139.84;100.00;61778.28;5029264;28;20029;-69
2023/04/09 06:48:32;;;;;;;69.25;39.05;;;;;;;-139.84;100.00;61778.28;5045712;28;20182;-69
2023/04/09 06:50:57;;;;;;;82.90;42.53;;;;;;;-139.84;100.00;61778.28;5044827;28;20134;-69
2023/04/09 06:53:22;;;;;;;78.67;41.93;;;;;;;-139.84;100.00;61778.28;5029695;28;20178;-69
2023/04/09 06:55:48;;;;;;;82.90;42.17;;;;;;;-139.84;100.00;61778.28;5047075;28;20112;-68
2023/04/09 06:58:13;;;;;;;77.85;41.22;;;;;;;-139.84;100.00;61778.28;5046698;28;20029;-68
2023/04/09 07:00:39;;;;;;;76.77;40.70;;;;;;;-139.84;100.00;61778.28;5047614;28;20052;-68
2023/04/09 07:03:06;;;;;;;72.57;38.67;;;;;;;-139.84;100.00;61778.28;5050050;28;20436;-69
2023/04/09 07:05:32;;;;;;;65.40;36.88;;;;;;;-139.84;100.00;61778.28;5048162;28;20648;-69
2023/04/09 07:07:57;;;;;;;67.90;38.53;;;;;;;-139.84;100.00;61778.28;5045721;28;20163;-69
2023/04/09 07:10:22;;;;;;;79.90;41.30;;;;;;;-139.84;100.00;61778.28;5049852;28;20025;-69
2023/04/09 07:12:48;;;;;;;75.72;40.65;;;;;;;-139.84;100.00;61778.28;5027043;28;20025;-68
2023/04/09 07:15:13;;;;;;;79.68;41.80;;;;;;;-139.84;100.00;61778.28;5044024;28;20587;-69
2023/04/09 07:17:39;;;;;;;75.30;40.87;;;;;;;-139.84;100.00;61778.28;5045868;28;20029;-69
2023/04/09 07:20:05;;;;;;;72.10;40.37;;;;;;;-139.84;100.00;61778.28;5050335;28;20085;-69
2023/04/09 07:22:30;;;;;;;75.97;41.97;;;;;;;-139.84;100.00;61778.28;5035435;28;20031;-69
2023/04/09 07:24:56;;;;;;;76.13;42.13;;;;;;;-139.84;100.00;61778.28;5046239;28;20028;-68
2023/04/09 07:27:23;;;;;;;73.78;40.90;;;;;;;-139.84;100.00;61778.28;5043794;28;20032;-69
2023/04/09 07:29:49;;;;;;;80.32;41.10;;;;;;;-139.84;100.00;61778.28;5034026;28;20107;-69
2023/04/09 07:32:15;;;;;;;79.97;41.88;;;;;;;-139.84;100.00;61778.28;5044097;28;20029;-69
2023/04/09 07:34:42;;;;;;;83.10;43.45;;;;;;;-139.84;100.00;61778.28;5045506;28;20490;-68
2023/04/09 07:37:07;;;;;;;75.55;40.13;;;;;;;-139.84;100.00;61778.28;5026035;28;21491;-68
2023/04/09 07:39:33;;;;;;;82.00;42.90;;;;;;;-139.84;100.00;61778.28;5044648;28;20037;-69
2023/04/09 07:42:02;;;;;;;85.40;44.53;;;;;;;-139.84;100.00;61778.28;5047164;28;20040;-68
2023/04/09 07:44:28;;;;;;;84.75;44.17;;;;;;;-139.84;100.00;61778.28;5042738;28;20040;-68
2023/04/09 07:46:53;;;;;;;82.20;43.43;;;;;;;-139.84;100.00;61778.28;5045550;28;20028;-68
2023/04/09 07:49:20;;;;;;;80.20;44.60;;;;;;;-139.84;100.00;61778.28;5028783;28;20022;-69
2023/04/09 07:51:45;;;;;;;86.97;45.72;;;;;;;-139.84;100.00;61778.28;5030735;28;20021;-69
2023/04/09 07:54:11;;;;;;;81.50;43.15;;;;;;;-139.84;100.00;61778.28;5042832;28;20413;-69
2023/04/09 07:56:36;;;;;;;84.23;45.90;;;;;;;-139.84;100.00;61778.28;5041128;28;20367;-68
2023/04/09 07:59:02;;;;;;;87.67;46.40;;;;;;;-139.84;100.00;61778.28;5044727;28;20027;-69
2023/04/09 08:01:27;;;;;;;88.82;47.38;;;;;;;-139.84;100.00;61778.28;5044337;28;20059;-68
2023/04/09 08:03:52;;;;;;;84.67;45.10;;;;;;;-139.84;100.00;61778.28;5043129;28;20037;-69
2023/04/09 08:06:18;;;;;;;85.50;45.50;;;;;;;-139.84;100.00;61778.28;5045619;28;20128;-69
2023/04/09 08:08:43;;;;;;;90.27;49.03;;;;;;;-139.84;100.00;61778.28;5043389;28;20025;-68
2023/04/09 08:11:09;;;;;;;95.50;49.55;;;;;;;-139.84;100.00;61778.28;5044596;28;20034;-69
2023/04/09 08:13:34;;;;;;;92.37;49.13;;;;;;;-139.84;100.00;61778.28;5026565;28;20073;-69
2023/04/09 08:16:01;;;;;;;89.88;47.80;;;;;;;-139.84;100.00;61778.28;5045130;28;20028;-69
2023/04/09 08:18:26;;;;;;;89.63;49.42;;;;;;;-139.84;100.00;61778.28;5039854;28;20370;-69
2023/04/09 08:20:52;;;;;;;95.07;47.90;;;;;;;-139.84;100.00;61778.28;5049063;28;20123;-69
2023/04/09 08:23:17;;;;;;;87.22;47.58;;;;;;;-139.84;100.00;61778.28;5040395;28;20049;-69
2023/04/09 08:25:43;;;;;;;89.03;48.33;;;;;;;-139.84;100.00;61778.28;5044852;28;20024;-75
2023/04/09 08:28:08;;;;;;;100.65;48.47;;;;;;;-139.84;100.00;61778.28;5041094;28;20029;-75
2023/04/09 08:30:34;;;;;;;84.20;45.43;;;;;;;-139.84;100.00;61778.28;5044446;28;20025;-74
2023/04/09 08:33:00;;;;;;;88.22;47.25;;;;;;;-139.84;100.00;61778.28;5043536;28;20091;-74
2023/04/09 08:35:27;;;;;;;86.50;47.90;;;;;;;-139.84;100.00;61778.28;5047386;28;20037;-74
2023/04/09 08:37:55;;;;;;;86.05;48.30;;;;;;;-139.84;100.00;61778.28;5030090;28;20100;-75
2023/04/09 08:40:20;;;;;;;92.32;50.95;;;;;;;-139.84;100.00;61778.28;5042858;28;20082;-74
2023/04/09 08:42:51;;;;;;;92.13;50.97;;;;;;;-139.84;100.00;61778.28;5043246;28;20033;-75
2023/04/09 08:45:17;;;;;;;86.45;48.67;;;;;;;-139.84;100.00;61778.28;5042158;28;20063;-75
2023/04/09 08:47:44;;;;;;;86.40;49.17;;;;;;;-139.84;100.00;61778.28;5044655;28;20093;-74
2023/04/09 08:50:10;;;;;;;84.63;45.08;;;;;;;-139.84;100.00;61778.28;5045992;28;20036;-74
2023/04/09 08:52:36;;;;;;;79.50;46.20;;;;;;;-139.84;100.00;61778.28;5041949;28;20025;-75
2023/04/09 08:55:01;;;;;;;64.30;39.13;;;;;;;-139.84;100.00;61778.28;5041581;28;20079;-75
2023/04/09 08:57:27;;;;;;;67.27;37.57;;;;;;;-139.84;100.00;61778.28;5042692;28;20041;-74
2023/04/09 08:59:52;;;;;;;61.43;36.50;;;;;;;-139.84;100.00;61778.28;5043036;28;20024;-74
2023/04/09 09:02:17;;;;;;;61.23;36.10;;;;;;;-139.84;100.00;61778.28;5042738;28;20052;-75
2023/04/09 09:04:47;;;;;;;69.93;36.37;;;;;;;-139.84;100.00;61778.28;5044064;28;20104;-74
2023/04/09 09:07:13;;;;;;;59.53;35.35;;;;;;;-139.84;100.00;61778.28;5027528;28;20028;-74
2023/04/09 09:10:05;;;;;;;65.32;37.08;;;;;;;-139.84;100.00;61778.28;5042784;28;20021;-75
2023/04/09 09:12:35;;;;;;;59.17;36.70;;;;;;;-139.84;100.00;61778.28;5035527;28;20052;-74
2023/04/09 09:15:01;;;;;;;62.75;35.35;;;;;;;-139.84;100.00;61778.28;5042563;28;20029;-75
2023/04/09 09:17:27;;;;;;;58.22;35.92;;;;;;;-139.84;100.00;61778.28;5041387;28;20108;-74
2023/04/09 09:19:53;;;;;;;58.67;36.50;;;;;;;-139.84;100.00;61778.28;5029698;28;20443;-75
2023/04/09 09:22:18;;;;;;;59.50;37.03;;;;;;;-139.84;100.00;61778.28;5031536;28;20123;-74
2023/04/09 09:24:51;;;;;;;58.97;35.73;;;;;;;-139.84;100.00;61778.28;5041458;28;20435;-75
2023/04/09 09:27:35;;;;;;;60.67;37.05;;;;;;;-139.84;100.00;61778.28;5043736;28;20380;-74
2023/04/09 09:30:02;;;;;;;66.38;38.38;;;;;;;-139.84;100.00;61778.28;5043527;28;20024;-74
2023/04/09 09:32:27;;;;;;;61.75;36.50;;;;;;;-139.84;100.00;61778.28;5030716;28;20256;-73
2023/04/09 09:35:01;;;;;;;61.87;38.47;;;;;;;-139.84;100.00;61778.28;5045115;28;20048;-73
2023/04/09 09:37:27;;;;;;;53.17;34.10;;;;;;;-139.84;100.00;61778.28;5038371;28;20529;-73
2023/04/09 09:39:53;;;;;;;51.10;33.27;;;;;;;-139.84;100.00;61778.28;5041950;28;20111;-73
2023/04/09 09:42:18;;;;;;;55.53;35.88;;;;;;;-139.84;100.00;61778.28;5041507;28;20113;-76
2023/04/09 09:44:44;;;;;;;51.97;33.07;;;;;;;-139.84;100.00;61778.28;5044919;28;20496;-73
2023/04/09 09:47:14;;;;;;;58.00;36.50;;;;;;;-139.84;100.00;61778.28;5042187;28;20037;-74
2023/04/09 09:49:40;;;;;;;54.92;34.90;;;;;;;-139.84;100.00;61778.28;5040200;28;20017;-72
2023/04/09 09:52:09;;;;;;;63.10;37.40;;;;;;;-139.84;100.00;61778.28;5045566;28;20095;-74
2023/04/09 09:54:42;;;;;;;54.33;34.40;;;;;;;-139.84;100.00;61778.28;5026605;28;20017;-74
2023/04/09 09:57:09;;;;;;;56.35;33.28;;;;;;;-139.84;100.00;61778.28;5042076;28;20095;-73
2023/04/09 09:59:46;;;;;;;;;;;;;;;-139.84;100.00;61778.28;5030782;28;20431;-74
2023/04/09 10:02:18;;;;;;;56.58;35.90;;;;;;;-139.84;100.00;61778.28;5040346;28;20456;-74
2023/04/09 10:04:44;;;;;;;54.58;34.25;;;;;;;-139.84;100.00;61778.28;5043807;28;20385;-74
2023/04/09 10:07:10;;;;;;;62.23;37.50;;;;;;;-139.84;100.00;61778.28;5028624;28;20029;-73
2023/04/09 10:09:40;;;;;;;59.40;37.97;;;;;;;-139.84;100.00;61778.28;5044438;28;20152;-73
2023/04/09 10:12:08;;;;;;;61.30;38.00;;;;;;;-139.84;100.00;61778.28;5043204;28;20025;-74
2023/04/09 10:14:34;;;;;;;57.47;37.17;;;;;;;-139.84;100.00;61778.28;5044059;28;20370;-74
2023/04/09 10:17:02;;;;;;;57.95;37.42;;;;;;;-139.84;100.00;61778.28;5043682;28;20052;-74
2023/04/09 10:19:29;;;;;;;59.28;37.17;;;;;;;-139.84;100.00;61778.28;5038491;28;20025;-74
2023/04/09 10:22:09;;;;;;;57.33;36.15;;;;;;;-139.84;100.00;61778.28;5031061;28;20079;-73
2023/04/09 10:24:35;;;;;;;53.47;35.88;;;;;;;-139.84;100.00;61778.28;5044078;28;20033;-73
2023/04/09 10:27:14;;;;;;;55.83;36.58;;;;;;;-139.84;100.00;61778.28;5043021;28;20476;-74
2023/04/09 10:29:45;;;;;;;59.70;37.38;;;;;;;-139.84;100.00;61778.28;5040163;28;20564;-74
2023/04/09 10:32:22;;;;;;;49.50;35.28;;;;;;;-139.84;100.00;61778.28;5042295;28;20021;-73
2023/04/09 10:34:49;;;;;;;51.10;36.05;;;;;;;-139.84;100.00;61778.28;5040784;28;20399;-73
2023/04/09 10:37:26;;;;;;;56.85;36.35;;;;;;;-139.84;100.00;61778.28;5030727;28;20094;-73
2023/04/09 10:39:52;;;;;;;54.35;35.05;;;;;;;-139.84;100.00;61778.28;5020941;28;20111;-75
2023/04/09 10:42:23;;;;;;;53.70;34.83;;;;;;;-139.84;100.00;61778.28;5028482;28;20521;-73
2023/04/09 10:45:05;;;;;;;49.88;32.72;;;;;;;-139.84;100.00;61778.28;5040865;28;20092;-74
2023/04/09 10:47:33;;;;;;;50.83;33.40;;;;;;;-139.84;100.00;61778.28;5041689;28;20036;-74
2023/04/09 10:50:14;;;;;;;54.83;34.45;;;;;;;-139.84;100.00;61778.28;5023210;28;20035;-75
2023/04/09 10:52:43;;;;;;;51.00;33.47;;;;;;;-139.84;100.00;61778.28;5038781;28;20112;-74
2023/04/09 10:55:28;;;;;;;50.72;32.72;;;;;;;-139.84;100.00;61778.28;5027994;28;20020;-73